createdAt,value
2022-11-28T00:01:29.478Z,91.65
2022-11-28T00:03:56.646Z,92.69
2022-11-28T00:06:24.479Z,92.34
2022-11-28T00:08:52.111Z,92.14
2022-11-28T00:11:19.920Z,91.15
2022-11-28T00:13:50.383Z,92.04
2022-11-28T00:16:24.034Z,92.49
2022-11-28T00:18:54.913Z,92.64
2022-11-28T00:21:22.794Z,92.10
2022-11-28T00:23:50.198Z,92.46
2022-11-28T00:26:20.818Z,92.65
2022-11-28T00:28:48.355Z,93.81
2022-11-28T00:31:18.106Z,92.80
2022-11-28T00:33:46.140Z,93.05
2022-11-28T00:36:13.682Z,92.85
2022-11-28T00:38:41.343Z,92.61
2022-11-28T00:41:20.133Z,93.07
2022-11-28T00:43:49.005Z,93.33
2022-11-28T00:46:18.224Z,92.95
2022-11-28T00:48:45.485Z,93.00
2022-11-28T00:51:24.017Z,93.57
2022-11-28T00:53:53.014Z,93.51
2022-11-28T00:56:23.771Z,91.71
2022-11-28T00:58:51.792Z,93.37
2022-11-28T01:01:22.927Z,92.99
2022-11-28T01:03:52.853Z,92.66
2022-11-28T01:06:28.764Z,91.03
2022-11-28T01:08:56.404Z,92.77
2022-11-28T01:11:24.834Z,92.77
2022-11-28T01:13:56.799Z,92.74
2022-11-28T01:16:24.280Z,92.97
2022-11-28T01:18:52.408Z,92.75
2022-11-28T01:21:20.855Z,93.45
2022-11-28T01:23:49.336Z,93.81
2022-11-28T01:26:19.914Z,93.56
2022-11-28T01:28:47.572Z,93.86
2022-11-28T01:31:17.739Z,94.42
2022-11-28T01:33:45.281Z,94.45
2022-11-28T01:36:13.943Z,94.97
2022-11-28T01:38:41.570Z,94.56
2022-11-28T01:41:09.653Z,94.90
2022-11-28T01:43:37.401Z,94.19
2022-11-28T01:46:05.678Z,94.93
2022-11-28T01:48:39.643Z,94.71
2022-11-28T01:51:09.429Z,95.69
2022-11-28T01:53:41.104Z,94.59
2022-11-28T01:56:18.073Z,95.16
2022-11-28T01:58:50.700Z,94.86
2022-11-28T02:01:19.212Z,94.94
2022-11-28T02:03:50.133Z,95.49
2022-11-28T02:06:23.045Z,95.40
2022-11-28T02:08:54.613Z,95.35
2022-11-28T02:11:54.014Z,95.33
2022-11-28T02:14:43.629Z,94.86
2022-11-28T02:17:42.746Z,93.31
2022-11-28T02:20:15.798Z,94.51
2022-11-28T02:22:57.798Z,94.66
2022-11-28T02:25:36.696Z,94.92
2022-11-28T02:28:38.935Z,95.23
2022-11-28T02:31:20.291Z,94.76
2022-11-28T02:34:00.893Z,94.56
2022-11-28T02:36:34.543Z,94.83
2022-11-28T02:39:14.362Z,95.03
2022-11-28T02:41:52.961Z,95.37
2022-11-28T02:44:45.915Z,94.94
2022-11-28T02:47:42.795Z,94.77
2022-11-28T02:50:17.448Z,95.05
2022-11-28T02:52:53.422Z,95.11
2022-11-28T02:55:22.562Z,94.69
2022-11-28T02:57:52.953Z,94.35
2022-11-28T03:00:25.933Z,94.20
2022-11-28T03:03:14.763Z,94.74
2022-11-28T03:05:42.304Z,94.00
2022-11-28T03:08:13.765Z,92.91
2022-11-28T03:11:06.050Z,93.49
2022-11-28T03:13:53.582Z,94.23
2022-11-28T03:16:39.533Z,94.41
2022-11-28T03:19:15.325Z,94.67
2022-11-28T03:22:20.683Z,94.49
2022-11-28T03:24:56.017Z,94.94
2022-11-28T03:27:34.858Z,95.33
2022-11-28T03:30:17.975Z,95.01
2022-11-28T03:32:50.715Z,94.38
2022-11-28T03:35:22.185Z,95.04
2022-11-28T03:37:55.098Z,95.32
2022-11-28T03:40:31.201Z,94.78
2022-11-28T03:43:04.194Z,93.66
2022-11-28T03:45:40.173Z,92.76
2022-11-28T03:48:20.233Z,94.95
2022-11-28T03:50:52.043Z,94.78
2022-11-28T03:53:27.263Z,94.13
2022-11-28T03:55:57.069Z,93.26
2022-11-28T03:58:44.034Z,93.91
2022-11-28T04:01:35.066Z,93.33
2022-11-28T04:04:23.313Z,93.98
2022-11-28T04:06:58.580Z,94.97
2022-11-28T04:09:40.502Z,94.33
2022-11-28T04:12:18.912Z,94.74
2022-11-28T04:14:54.452Z,94.38
2022-11-28T04:17:35.785Z,95.44
2022-11-28T04:20:14.565Z,96.02
2022-11-28T04:22:50.704Z,94.72
2022-11-28T04:25:22.349Z,95.48
2022-11-28T04:27:55.313Z,95.40
2022-11-28T04:30:22.742Z,96.12
2022-11-28T04:32:56.141Z,96.28
2022-11-28T04:35:34.683Z,96.41
2022-11-28T04:38:04.646Z,96.18
2022-11-28T04:40:35.676Z,95.71
2022-11-28T04:43:11.193Z,95.62
2022-11-28T04:45:49.698Z,94.95
2022-11-28T04:48:18.377Z,95.46
2022-11-28T04:50:59.008Z,95.02
2022-11-28T04:53:35.975Z,95.03
2022-11-28T04:56:13.738Z,95.66
2022-11-28T04:58:45.553Z,95.88
2022-11-28T05:01:18.610Z,95.93
2022-11-28T05:03:46.504Z,95.44
2022-11-28T05:06:27.205Z,95.44
2022-11-28T05:08:54.254Z,95.07
2022-11-28T05:11:21.303Z,95.57
2022-11-28T05:13:48.845Z,95.48
2022-11-28T05:16:17.159Z,95.09
2022-11-28T05:18:44.625Z,96.21
2022-11-28T05:21:12.433Z,95.16
2022-11-28T05:23:44.325Z,94.46
2022-11-28T05:26:14.443Z,95.30
2022-11-28T05:28:45.635Z,95.49
2022-11-28T05:31:13.515Z,96.43
2022-11-28T05:33:40.563Z,96.22
2022-11-28T05:36:13.086Z,94.85
2022-11-28T05:38:41.212Z,95.58
2022-11-28T05:41:08.593Z,96.16
2022-11-28T05:43:37.665Z,95.71
2022-11-28T05:46:06.995Z,94.75
2022-11-28T05:48:34.483Z,95.56
2022-11-28T05:51:06.384Z,96.39
2022-11-28T05:53:34.303Z,96.49
2022-11-28T05:56:10.591Z,97.51
2022-11-28T05:58:38.066Z,96.74
2022-11-28T06:01:22.388Z,97.26
2022-11-28T06:03:50.021Z,96.98
2022-11-28T06:06:21.911Z,97.02
2022-11-28T06:08:52.061Z,96.38
2022-11-28T06:11:33.592Z,95.45
2022-11-28T06:14:08.907Z,96.51
2022-11-28T06:16:36.091Z,95.99
2022-11-28T06:19:06.355Z,96.54
2022-11-28T06:21:34.474Z,97.18
2022-11-28T06:24:03.862Z,96.78
2022-11-28T06:26:31.016Z,94.97
2022-11-28T06:29:00.291Z,96.02
2022-11-28T06:31:31.061Z,96.58
2022-11-28T06:33:58.908Z,96.57
2022-11-28T06:36:26.922Z,97.45
2022-11-28T06:38:54.847Z,96.56
2022-11-28T06:41:23.274Z,97.36
2022-11-28T06:43:50.636Z,96.97
2022-11-28T06:46:19.987Z,97.22
2022-11-28T06:48:48.594Z,96.98
2022-11-28T06:51:16.769Z,96.67
2022-11-28T06:53:44.188Z,96.71
2022-11-28T06:56:17.314Z,97.50
2022-11-28T06:58:45.367Z,96.90
2022-11-28T07:01:19.059Z,97.15
2022-11-28T07:03:47.323Z,96.62
2022-11-28T07:06:16.647Z,97.16
2022-11-28T07:08:44.284Z,97.23
2022-11-28T07:11:23.892Z,95.86
2022-11-28T07:13:51.594Z,97.17
2022-11-28T07:16:28.702Z,96.32
2022-11-28T07:18:59.278Z,94.74
2022-11-28T07:21:28.813Z,95.82
2022-11-28T07:23:55.861Z,94.70
2022-11-28T07:26:23.197Z,96.69
2022-11-28T07:28:52.684Z,96.52
2022-11-28T07:31:22.472Z,95.19
2022-11-28T07:33:51.533Z,95.21
2022-11-28T07:36:27.789Z,95.28
2022-11-28T07:41:26.942Z,94.68
2022-11-28T07:43:59.842Z,94.28
2022-11-28T07:46:28.286Z,95.35
2022-11-28T07:48:55.943Z,94.41
2022-11-28T07:51:28.738Z,94.39
2022-11-28T07:53:56.208Z,94.33
2022-11-28T07:56:31.955Z,93.19
2022-11-28T07:59:07.671Z,93.80
2022-11-28T08:01:36.198Z,93.18
2022-11-28T08:04:06.853Z,92.83
2022-11-28T08:06:38.401Z,92.58
2022-11-28T08:09:07.112Z,91.61
2022-11-28T08:11:34.643Z,92.31
2022-11-28T08:14:02.130Z,91.08
2022-11-28T08:16:30.362Z,89.73
2022-11-28T08:19:00.254Z,90.16
2022-11-28T08:21:30.095Z,89.00
2022-11-28T08:24:00.318Z,88.20
2022-11-28T08:26:30.670Z,86.68
2022-11-28T08:29:02.933Z,86.45
2022-11-28T08:31:38.507Z,85.79
2022-11-28T08:34:11.165Z,86.54
2022-11-28T08:36:38.426Z,86.76
2022-11-28T08:42:00.623Z,86.21
2022-11-28T08:44:31.808Z,81.72
2022-11-28T08:47:06.325Z,80.84
2022-11-28T08:49:33.480Z,79.92
2022-11-28T08:52:00.482Z,78.95
2022-11-28T08:54:27.586Z,80.04
2022-11-28T08:56:54.860Z,78.71
2022-11-28T08:59:21.811Z,78.88
2022-11-28T09:01:48.722Z,76.88
2022-11-28T09:04:15.664Z,75.79
2022-11-28T09:06:42.758Z,74.20
2022-11-28T09:09:10.162Z,72.05
2022-11-28T09:11:37.752Z,71.98
2022-11-28T09:14:04.845Z,68.24
2022-11-28T09:16:31.870Z,67.31
2022-11-28T09:18:59.590Z,68.77
2022-11-28T09:21:27.161Z,69.78
2022-11-28T09:23:56.214Z,71.56
2022-11-28T09:26:25.366Z,72.05
2022-11-28T09:28:54.410Z,73.33
2022-11-28T09:31:22.131Z,74.52
2022-11-28T09:33:51.852Z,74.80
2022-11-28T09:36:21.133Z,73.73
2022-11-28T09:38:48.381Z,74.21
2022-11-28T09:41:52.745Z,73.68
2022-11-28T09:44:37.369Z,73.92
2022-11-28T09:47:12.063Z,72.96
2022-11-28T09:49:49.530Z,72.40
2022-11-28T09:53:24.309Z,72.29
2022-11-28T09:55:56.534Z,72.93
2022-11-28T09:58:47.965Z,74.15
2022-11-28T10:01:48.441Z,73.80
2022-11-28T10:05:07.734Z,74.23
2022-11-28T10:07:59.686Z,74.25
2022-11-28T10:10:42.703Z,73.30
2022-11-28T10:13:21.725Z,73.48
2022-11-28T10:15:55.959Z,74.66
2022-11-28T10:18:38.521Z,73.84
2022-11-28T10:23:45.836Z,71.94
2022-11-28T10:26:36.237Z,73.06
2022-11-28T10:29:33.990Z,72.26
2022-11-28T10:32:05.128Z,73.29
2022-11-28T10:35:09.662Z,71.34
2022-11-28T10:37:40.847Z,70.93
2022-11-28T10:40:29.417Z,70.58
2022-11-28T10:43:04.719Z,69.40
2022-11-28T10:46:07.254Z,69.00
2022-11-28T10:49:02.507Z,70.06
2022-11-28T10:51:54.583Z,68.89
2022-11-28T10:55:03.752Z,68.53
2022-11-28T10:58:20.094Z,69.58
2022-11-28T11:00:50.186Z,69.11
2022-11-28T11:03:29.834Z,68.85
2022-11-28T11:06:00.165Z,69.97
2022-11-28T11:08:38.196Z,69.93
2022-11-28T11:11:31.568Z,68.53
2022-11-28T11:14:11.354Z,68.21
2022-11-28T11:17:24.945Z,68.55
2022-11-28T11:22:32.727Z,70.21
2022-11-28T11:25:16.097Z,69.81
2022-11-28T11:27:57.493Z,69.52
2022-11-28T11:30:40.708Z,68.80
2022-11-28T11:33:16.221Z,68.28
2022-11-28T11:35:48.095Z,69.10
2022-11-28T11:38:33.503Z,68.46
2022-11-28T11:41:44.105Z,69.15
2022-11-28T11:44:29.605Z,68.74
2022-11-28T11:47:06.100Z,68.95
2022-11-28T11:49:48.351Z,68.79
2022-11-28T11:52:23.749Z,69.95
2022-11-28T11:55:16.947Z,69.71
2022-11-28T11:57:56.009Z,69.24
2022-11-28T12:00:43.173Z,69.39
2022-11-28T12:03:27.338Z,69.61
2022-11-28T12:06:16.832Z,70.21
2022-11-28T12:17:25.633Z,68.55
2022-11-28T12:25:57.465Z,67.99
2022-11-28T12:28:52.303Z,67.55
2022-11-28T12:31:37.184Z,68.36
2022-11-28T12:34:22.312Z,68.31
2022-11-28T12:37:16.646Z,73.82
2022-11-28T12:39:52.749Z,67.73
2022-11-28T12:42:51.010Z,67.58
2022-11-28T12:45:31.869Z,68.09
2022-11-28T12:48:52.911Z,67.40
2022-11-28T12:51:43.109Z,67.76
2022-11-28T12:54:51.234Z,67.48
2022-11-28T12:57:27.327Z,67.98
2022-11-28T13:00:10.191Z,69.26
2022-11-28T13:03:22.912Z,68.31
2022-11-28T13:06:30.767Z,69.25
2022-11-28T13:09:11.074Z,67.66
2022-11-28T13:11:52.670Z,67.80
2022-11-28T13:14:57.693Z,68.65
2022-11-28T13:17:43.174Z,66.76
2022-11-28T13:20:25.375Z,67.48
2022-11-28T13:22:59.257Z,67.27
2022-11-28T13:28:20.244Z,67.87
2022-11-28T13:30:56.408Z,67.64
2022-11-28T13:33:56.309Z,68.68
2022-11-28T13:39:47.595Z,69.88
2022-11-28T13:45:43.501Z,69.83
2022-11-28T13:51:34.094Z,71.38
2022-11-28T13:54:21.873Z,72.30
2022-11-28T13:57:21.760Z,71.90
2022-11-28T13:59:59.457Z,72.69
2022-11-28T14:02:42.411Z,73.60
2022-11-28T14:05:26.818Z,74.33
2022-11-28T14:07:56.087Z,73.45
2022-11-28T14:10:38.466Z,73.59
2022-11-28T14:13:09.756Z,73.94
2022-11-28T14:16:08.233Z,74.23
2022-11-28T14:19:13.004Z,74.22
2022-11-28T14:22:09.117Z,73.89
2022-11-28T14:24:54.166Z,73.29
2022-11-28T14:27:31.155Z,74.53
2022-11-28T14:30:00.339Z,74.26
2022-11-28T14:32:42.700Z,73.88
2022-11-28T14:38:31.093Z,73.74
2022-11-28T14:41:08.358Z,75.50
2022-11-28T14:43:38.703Z,74.43
2022-11-28T14:46:26.003Z,84.20
2022-11-28T14:48:59.389Z,75.39
2022-11-28T14:51:48.932Z,74.82
2022-11-28T14:54:38.544Z,76.13
2022-11-28T14:57:22.048Z,78.04
2022-11-28T15:00:00.213Z,77.83
2022-11-28T15:03:05.145Z,78.29
2022-11-28T15:05:51.156Z,79.21
2022-11-28T15:08:39.959Z,79.28
2022-11-28T15:11:28.831Z,79.53
2022-11-28T15:14:06.099Z,79.67
2022-11-28T15:16:46.582Z,80.08
2022-11-28T15:20:01.928Z,80.36
2022-11-28T15:22:41.701Z,80.80
2022-11-28T15:25:29.912Z,81.64
2022-11-28T15:28:43.371Z,80.79
2022-11-28T15:31:22.132Z,80.35
2022-11-28T15:33:52.222Z,80.17
2022-11-28T15:36:28.783Z,81.13
2022-11-28T15:39:00.061Z,81.26
2022-11-28T15:41:28.477Z,82.14
2022-11-28T15:43:56.642Z,81.83
2022-11-28T15:46:36.785Z,81.94
2022-11-28T15:49:05.515Z,81.69
2022-11-28T15:51:36.624Z,82.03
2022-11-28T15:54:22.318Z,83.13
2022-11-28T15:57:03.048Z,82.28
2022-11-28T15:59:31.864Z,82.48
2022-11-28T16:02:13.414Z,82.18
2022-11-28T16:04:45.215Z,82.11
2022-11-28T16:07:16.219Z,83.09
2022-11-28T16:10:05.906Z,83.28
2022-11-28T16:12:33.592Z,82.37
2022-11-28T16:15:05.074Z,82.60
2022-11-28T16:17:34.044Z,82.91
2022-11-28T16:20:04.033Z,82.80
2022-11-28T16:22:38.083Z,82.56
2022-11-28T16:25:22.545Z,83.57
2022-11-28T16:27:53.453Z,83.26
2022-11-28T16:30:23.996Z,82.86
2022-11-28T16:32:54.102Z,83.58
2022-11-28T16:35:29.178Z,82.98
2022-11-28T16:38:24.834Z,83.93
2022-11-28T16:40:59.468Z,83.31
2022-11-28T16:43:43.454Z,83.04
2022-11-28T16:46:22.163Z,82.82
2022-11-28T16:48:55.584Z,82.48
2022-11-28T16:51:23.463Z,83.16
2022-11-28T16:54:02.816Z,82.43
2022-11-28T16:56:33.022Z,82.60
2022-11-28T16:59:15.351Z,83.66
2022-11-28T17:01:47.145Z,82.64
2022-11-28T17:04:28.942Z,82.67
2022-11-28T17:07:05.498Z,82.57
2022-11-28T17:09:34.151Z,82.50
2022-11-28T17:12:07.211Z,82.92
2022-11-28T17:14:34.901Z,82.09
2022-11-28T17:17:02.327Z,81.49
2022-11-28T17:19:40.498Z,81.53
2022-11-28T17:22:13.680Z,81.56
2022-11-28T17:24:42.459Z,81.02
2022-11-28T17:27:14.048Z,80.88
2022-11-28T17:29:42.942Z,80.54
2022-11-28T17:32:14.450Z,80.81
2022-11-28T17:37:24.092Z,80.32
2022-11-28T17:40:12.405Z,79.43
2022-11-28T17:42:39.612Z,79.12
2022-11-28T17:45:15.407Z,79.72
2022-11-28T17:47:42.761Z,79.01
2022-11-28T17:50:11.638Z,79.56
2022-11-28T17:52:41.348Z,79.89
2022-11-28T17:55:09.638Z,79.83
2022-11-28T17:57:37.108Z,79.96
2022-11-28T18:00:09.152Z,79.86
2022-11-28T18:02:37.916Z,79.89
2022-11-28T18:05:05.470Z,79.87
2022-11-28T18:07:33.221Z,80.05
2022-11-28T18:10:00.560Z,79.94
2022-11-28T18:12:27.524Z,79.60
2022-11-28T18:14:54.539Z,80.19
2022-11-28T18:17:23.278Z,80.44
2022-11-28T18:31:13.029Z,79.37
2022-11-28T18:33:41.515Z,79.48
2022-11-28T18:36:15.299Z,79.31
2022-11-28T18:38:49.985Z,79.24
2022-11-28T18:41:19.568Z,79.36
2022-11-28T18:43:49.749Z,78.89
2022-11-28T18:46:21.920Z,78.60
2022-11-28T18:48:49.285Z,78.64
2022-11-28T18:51:19.449Z,78.52
2022-11-28T18:53:51.160Z,78.98
2022-11-28T18:56:19.255Z,78.93
2022-11-28T18:58:54.651Z,79.12
2022-11-28T19:01:38.134Z,79.46
2022-11-28T19:04:14.061Z,79.68
2022-11-28T19:10:33.143Z,79.68
2022-11-28T19:13:32.719Z,79.73
2022-11-28T19:16:28.814Z,79.80
2022-11-28T19:19:15.749Z,80.15
2022-11-28T19:21:43.746Z,80.81
2022-11-28T19:24:13.812Z,79.93
2022-11-28T19:26:40.732Z,79.25
2022-11-28T19:29:09.239Z,80.45
2022-11-28T19:31:45.020Z,80.31
2022-11-28T19:34:18.769Z,79.98
2022-11-28T19:36:48.168Z,80.15
2022-11-28T19:39:18.052Z,80.18
2022-11-28T19:41:45.705Z,80.19
2022-11-28T19:44:13.578Z,80.28
2022-11-28T19:46:41.567Z,80.36
2022-11-28T19:49:12.076Z,80.29
2022-11-28T19:51:40.400Z,80.67
2022-11-28T19:54:07.366Z,80.55
2022-11-28T19:56:35.523Z,81.69
2022-11-28T19:59:02.684Z,80.63
2022-11-28T20:01:31.309Z,81.43
2022-11-28T20:04:00.142Z,81.57
2022-11-28T20:06:30.448Z,81.13
2022-11-28T20:09:01.411Z,81.56
2022-11-28T20:11:33.817Z,81.89
2022-11-28T20:14:14.387Z,81.52
2022-11-28T20:16:41.457Z,81.41
2022-11-28T20:19:11.351Z,81.20
2022-11-28T20:21:39.108Z,81.92
2022-11-28T20:24:08.472Z,82.24
2022-11-28T20:26:42.029Z,82.61
2022-11-28T20:29:13.050Z,82.49
2022-11-28T20:31:46.892Z,82.40
2022-11-28T20:34:15.269Z,82.69
2022-11-28T20:36:42.491Z,82.26
2022-11-28T20:39:11.821Z,82.12
2022-11-28T20:41:38.943Z,81.75
2022-11-28T20:44:06.380Z,81.30
2022-11-28T20:46:35.933Z,82.53
2022-11-28T20:49:05.814Z,81.96
2022-11-28T20:51:34.815Z,81.69
2022-11-28T20:54:05.158Z,81.84
2022-11-28T20:56:51.930Z,82.00
2022-11-28T20:59:25.214Z,81.47
2022-11-28T21:01:52.257Z,81.46
2022-11-28T21:04:19.747Z,81.88
2022-11-28T21:06:48.148Z,81.90
2022-11-28T21:10:09.743Z,81.75
2022-11-28T21:12:44.068Z,81.52
2022-11-28T21:15:15.614Z,81.42
2022-11-28T21:17:42.586Z,80.92
2022-11-28T21:20:10.035Z,81.89
2022-11-28T21:22:36.869Z,81.08
2022-11-28T21:25:04.063Z,81.32
2022-11-28T21:27:31.202Z,81.30
2022-11-28T21:30:06.272Z,81.32
2022-11-28T21:32:33.108Z,81.30
2022-11-28T21:35:04.153Z,80.76
2022-11-28T21:37:31.670Z,80.15
2022-11-28T21:39:58.531Z,80.89
2022-11-28T21:42:25.509Z,80.29
2022-11-28T21:44:53.254Z,80.24
2022-11-28T21:47:21.613Z,79.74
2022-11-28T21:49:48.655Z,79.61
2022-11-28T21:52:16.980Z,79.55
2022-11-28T21:54:46.103Z,79.83
2022-11-28T21:57:12.981Z,79.21
2022-11-28T21:59:39.936Z,79.26
2022-11-28T22:02:11.474Z,78.84
2022-11-28T22:04:38.610Z,78.63
2022-11-28T22:07:05.510Z,78.72
2022-11-28T22:09:32.344Z,78.27
2022-11-28T22:11:59.217Z,78.17
2022-11-28T22:14:26.263Z,78.05
2022-11-28T22:16:53.121Z,78.02
2022-11-28T22:19:19.977Z,78.04
2022-11-28T22:21:52.054Z,78.29
2022-11-28T22:24:22.092Z,77.68
2022-11-28T22:26:49.066Z,76.97
2022-11-28T22:29:15.909Z,76.81
2022-11-28T22:33:32.895Z,77.02
2022-11-28T22:36:11.301Z,76.91
2022-11-28T22:38:39.313Z,76.67
2022-11-28T22:41:21.998Z,76.67
2022-11-28T22:43:55.999Z,78.25
2022-11-28T22:46:23.079Z,78.33
2022-11-28T22:48:50.754Z,77.70
2022-11-28T22:51:20.821Z,77.56
2022-11-28T22:53:47.791Z,77.80
2022-11-28T22:56:15.781Z,77.98
2022-11-28T22:58:44.941Z,77.83
2022-11-28T23:01:20.014Z,77.48
2022-11-28T23:03:47.581Z,77.95
2022-11-28T23:06:17.365Z,78.20
2022-11-28T23:08:45.060Z,77.79
2022-11-28T23:11:14.713Z,77.89
2022-11-28T23:13:42.334Z,77.70
2022-11-28T23:16:15.247Z,77.38
2022-11-28T23:18:43.240Z,78.03
2022-11-28T23:21:10.503Z,78.62
2022-11-28T23:23:38.537Z,78.69
2022-11-28T23:26:07.943Z,78.76
2022-11-28T23:28:35.861Z,78.97
2022-11-28T23:31:17.856Z,79.09
2022-11-28T23:33:45.656Z,79.29
2022-11-28T23:36:18.718Z,79.26
2022-11-28T23:38:47.065Z,79.52
2022-11-28T23:41:14.738Z,79.28
2022-11-28T23:43:42.365Z,79.33
2022-11-28T23:46:11.166Z,80.13
2022-11-28T23:48:38.834Z,79.27
2022-11-28T23:51:06.703Z,79.00
2022-11-28T23:53:34.628Z,79.01
2022-11-28T23:56:07.042Z,79.72
2022-11-28T23:58:35.226Z,79.37
